Weather observations for the past three days for
Omaha, Millard Airport
Metric (Imperial)
Date Time (cdt) Wind (kph) Vis. (km) Weather Sky Cond. Temperature (ºC) Relative Humidity Wind Chill (°C) Heat Index (°C) Pressure Precipitation (cm)
Air Dwpt 6 hour altimeter (cm) sea level (mb) 1 hr 3 hr 6 hr
Max. Min.
08 10:35 SE 6 16.09 Fair CLR 18.6 4.4 39% 75.72 0.0
08 10:15 SE 6 16.09 Fair CLR 17.3 4.2 42% 75.72 0.0
08 09:55 SE 7 16.09 Fair CLR 16.7 5 46% 75.72 0.0
08 09:35 Calm 16.09 Fair CLR 16 4.7 47% 75.72 0.0
08 09:15 SE 6 16.09 Partly Cloudy SCT110 15.4 4.4 48% 75.74 0.0
08 08:55 Calm 16.09 Mostly Cloudy BKN110 13.5 6.2 62% 75.74 0.0
08 08:15 Calm 16.09 Overcast OVC100 11.4 6.6 73% 75.74 0.0
08 07:35 Calm 16.09 Partly Cloudy SCT120 11 5.3 68% 75.69 0.0
08 07:15 Calm 16.09 Mostly Cloudy SCT070 SCT085 BKN110 10.6 5.6 71% 75.72 0.0
08 06:55 Calm 16.09 Light Rain SCT070 OVC100 11.4 4.3 13.5 9.9 62% 75.72 0.0
08 06:35 Calm 16.09 Mostly Cloudy BKN100 10.4 2.1 57% 75.72 0.0
08 06:15 Calm 16.09 Partly Cloudy SCT110 10 2.1 58% 75.69 0.0
08 05:55 Calm 16.09 Mostly Cloudy BKN110 10.3 2 57% 75.72 0.0
08 05:35 Calm 16.09 Partly Cloudy SCT110 10.8 1.5 53% 75.72 0.0
08 05:15 Calm 16.09 Partly Cloudy SCT110 11.5 1.2 49% 75.74 0.0
08 04:55 Calm 16.09 Mostly Cloudy BKN110 10.5 2.4 58% 75.74 0.0
08 04:35 Calm 16.09 Mostly Cloudy BKN120 10.6 2.1 56% 75.74 0.0
08 04:15 N 6 16.09 Mostly Cloudy BKN120 10.9 3 58% 75.74 0.0
08 03:55 Calm 16.09 Partly Cloudy SCT110 11.9 3.3 56% 75.74 0.0
08 03:35 Calm 16.09 Mostly Cloudy BKN100 BKN120 12.6 3.8 55% 75.77 0.0
08 03:15 S 7 16.09 Mostly Cloudy SCT100 BKN120 12.8 3.9 55% 75.74 0.0
08 02:55 Calm 16.09 Overcast OVC110 13.1 2.9 50% 75.77 0.0
08 02:35 Calm 16.09 Overcast OVC120 12.8 3.1 52% 75.77 0.0
08 02:15 SW 9 16.09 Overcast OVC110 12.7 3.5 54% 75.74 0.0
08 01:55 Calm 16.09 Mostly Cloudy BKN110 12.2 3.9 57% 75.77 0.0
08 01:35 Calm 16.09 Partly Cloudy SCT120 12.1 4.2 59% 75.77 0.0
08 01:15 Calm 16.09 Fair CLR 12.4 3 53% 75.77 0.0
08 00:55 Calm 16.09 Fair CLR 11.8 3.6 21.1 10.9 57% 75.77 0.0
08 00:35 Calm 16.09 Partly Cloudy SCT110 11.9 3.1 55% 75.74 0.0
08 00:15 Calm 16.09 Partly Cloudy SCT120 12.1 1.8 50% 75.74 0.0
07 23:55 Calm 16.09 Partly Cloudy SCT120 11.6 2.9 55% 75.77 0.0
07 23:35 Calm 16.09 Fair CLR 11.3 2.2 54% 75.77 0.0
07 23:15 Calm 16.09 Fair CLR 10.9 3.1 59% 75.77 0.0
07 22:55 Calm 16.09 Fair CLR 11.7 1.9 51% 75.77 0.0
07 22:35 Calm 16.09 Fair CLR 12 2.2 51% 75.77 0.0
07 22:15 Calm 16.09 Fair CLR 13.1 2.6 49% 75.77 0.0
07 21:55 Calm 16.09 Fair CLR 14 0 39% 75.77 0.0
07 21:35 Calm 16.09 Fair CLR 14.2 0 38% 75.74 0.0
07 21:15 Calm 16.09 Fair CLR 16.8 -0.4 31% 75.72 0.0
07 20:35 Calm 16.09 Fair CLR 19.1 -2.9 22% 75.72 0.0
07 20:15 N 7 16.09 Fair CLR 19.7 -2.8 22% 75.69 0.0
07 19:55 N 7 16.09 Fair CLR 20.1 -2.4 22% 75.67 0.0
07 19:35 N 7 16.09 Fair CLR 20.6 -2.3 21% 75.64 0.0
07 19:15 NW 13 16.09 Fair CLR 20.5 -0.8 24% 75.64 0.0
07 18:55 N 13 16.09 Fair CLR 21 -1 21.8 19 23% 75.64 0.0
07 18:35 NW 17 16.09 Fair CLR 21.2 -2.5 20% 75.64 0.0
07 18:15 W 13 16.09 Fair CLR 21.5 -1.8 21% 75.64 0.0
07 17:55 NW 24 16.09 Fair CLR 21.6 -1.9 21% 75.64 0.0
07 17:35 W 20 16.09 Fair CLR 21.7 -0.1 23% 75.64 0.0
07 17:15 W 11 16.09 Fair CLR 21.6 -0.3 23% 75.64 0.0
07 16:55 NW 17 16.09 Fair CLR 21.7 -0.5 23% 75.64 0.0
07 16:35 W 17 16.09 Fair CLR 21.6 -0.3 23% 75.64 0.0
07 16:15 W 24 16.09 Fair CLR 21.3 -2.2 21% 75.64 0.0
07 15:55 W 20 G 30 16.09 Fair CLR 21.5 0.3 24% 75.67 0.0
07 15:35 W 17 16.09 Fair CLR 21.2 0.1 25% 75.69 0.0
07 15:15 W 13 16.09 Fair CLR 20.9 0.9 27% 75.69 0.0
07 14:35 W 11 G 28 16.09 Partly Cloudy SCT080 21.1 1.3 27% 75.69 0.0
07 14:15 W 17 G 30 16.09 Partly Cloudy SCT080 20.9 3.1 31% 75.69 0.0
07 13:55 W 6 G 31 16.09 Partly Cloudy SCT080 20.2 1.9 30% 75.69 0.0
07 13:35 SW 9 G 19 16.09 Partly Cloudy SCT075 19.9 1.8 30% 75.72 0.0
07 13:15 SW 15 16.09 Partly Cloudy SCT075 20.1 2.7 32% 75.74 0.0
07 12:55 SW 13 G 26 16.09 Partly Cloudy SCT075 19.7 2 19.7 8 31% 75.74 0.0
07 12:15 SW 13 16.09 Fair CLR 18.9 1.5 31% 75.79 0.0
07 11:55 W 17 16.09 Fair CLR 18.3 1.3 32% 75.79 0.0
07 11:35 W 19 G 28 16.09 Fair CLR 18.3 2.2 34% 75.82 0.0
07 10:55 SW 13 16.09 Fair CLR 16.2 2.8 41% 75.84 0.0
07 10:35 W 17 G 26 16.09 Fair CLR 15.3 3.2 45% 75.87 0.0
07 10:15 W 15 16.09 Fair CLR 14.7 3.9 49% 75.9 0.0
07 09:55 SW 13 G 26 16.09 Fair CLR 13.8 3.6 50% 75.9 0.0
07 09:35 SW 9 G 17 16.09 Fair CLR 13.2 3.9 54% 75.92 0.0
07 09:15 SW 19 G 26 16.09 Fair CLR 12.5 4.3 58% 75.92 0.0
07 08:55 SW 15 G 28 16.09 Fair CLR 11.7 4.2 60% 75.95 0.0
07 08:35 SW 11 G 26 16.09 Fair CLR 11 4.1 63% 75.95 0.0
07 08:15 SW 11 16.09 Fair CLR 10.2 4 66% 75.95 0.0
07 07:55 SW 11 G 26 16.09 Fair CLR 9.5 4 69% 8 75.97 0.0
07 07:35 SW 13 16.09 Fair CLR 8.9 3.8 71% 7 75.97 0.0
07 07:15 SW 15 16.09 Fair CLR 8.4 3.8 73% 6 75.97 0.0
07 06:55 SW 9 16.09 Fair CLR 8 3.5 9.1 5.5 74% 7 75.97 0.0
07 06:35 SW 11 16.09 Fair CLR 7.9 3.5 74% 6 75.97 0.0
07 05:55 SW 11 16.09 Fair CLR 8.1 3.3 72% 6 75.97 0.0
07 05:35 SW 7 16.09 Fair CLR 8.4 3.4 71% 8 75.97 0.0
07 05:15 SW 11 16.09 Fair CLR 8.5 3.5 71% 7 75.97 0.0
07 04:55 SW 11 16.09 Fair CLR 8.5 3.3 70% 7 75.97 0.0
07 04:35 SW 7 16.09 Fair CLR 8.5 3.1 69% 8 76 0.0
07 04:15 SW 9 16.09 Fair CLR 8.7 3 68% 7 76 0.0
07 03:55 SW 11 16.09 Fair CLR 8.7 2.7 66% 7 76.02 0.0
07 03:35 SW 7 16.09 Fair CLR 8.9 2.5 65% 8 76.02 0.0
07 03:15 W 9 16.09 Fair CLR 9 2.2 63% 8 76.05 0.0
07 02:55 W 11 16.09 Fair CLR 8.8 1.6 61% 7 76.07 0.0
07 02:15 SW 7 16.09 Fair CLR 8.7 0.1 55% 8 76.1 0.0
07 01:55 SW 6 16.09 Fair CLR 8.5 -0.1 55% 76.12 0.0
07 01:35 Calm 16.09 Fair CLR 6.5 -0.4 62% 76.15 0.0
07 01:15 Calm 16.09 Fair CLR 5.8 0.6 70% 76.15 0.0
07 00:55 Calm 16.09 Fair CLR 6.3 0.8 15 6.2 68% 76.15 0.0
07 00:35 Calm 16.09 Partly Cloudy SCT100 7.1 -0.6 58% 76.15 0.0
07 00:15 Calm 16.09 Overcast OVC100 7.5 0.1 60% 76.15 0.0
06 23:55 Calm 16.09 Mostly Cloudy BKN100 6.6 1.8 72% 76.17 0.0
06 23:35 Calm 16.09 Mostly Cloudy BKN100 6.6 0 63% 76.17 0.0
06 23:15 Calm 16.09 Partly Cloudy SCT110 6.8 0.5 65% 76.17 0.0
06 22:55 Calm 16.09 Partly Cloudy SCT100 7.1 -0.2 60% 76.2 0.0
06 22:35 Calm 16.09 Partly Cloudy SCT100 7.9 0 58% 76.2 0.0
06 22:15 Calm 16.09 Fair CLR 8 -0.5 55% 76.2 0.0
06 21:55 Calm 16.09 Fair CLR 8.6 -1.4 50% 76.2 0.0
06 21:35 Calm 16.09 Fair CLR 8.8 -0.6 52% 76.2 0.0
06 21:15 Calm 16.09 Fair CLR 9.6 -2.1 44% 76.17 0.0
06 20:55 Calm 16.09 Fair CLR 10.6 -3.1 38% 76.17 0.0
06 20:35 Calm 16.09 Fair CLR 11.7 -3.5 35% 76.17 0.0
06 20:15 Calm 16.09 Partly Cloudy SCT095 13.5 -5.1 27% 76.17 0.0
06 19:55 NW 6 16.09 Partly Cloudy SCT095 14.2 -5.9 25% 76.17 0.0
06 19:35 NW 9 16.09 Fair CLR 14.2 -5.6 25% 76.17 0.0
06 19:15 NW 9 16.09 Partly Cloudy SCT100 14.7 -5.8 24% 76.2 0.0
06 18:55 NW 9 16.09 Partly Cloudy SCT100 15 -4.9 15.5 12 25% 76.2 0.0
06 18:35 NW 13 16.09 Fair CLR 14.8 -5.7 24% 76.23 0.0
06 18:15 NW 22 16.09 Partly Cloudy SCT095 15.3 -4.8 25% 76.23 0.0
06 17:55 W 17 G 28 16.09 Partly Cloudy SCT095 15.3 -5.5 24% 76.23 0.0
06 17:35 N 15 16.09 Mostly Cloudy BKN095 15.4 -5.5 23% 76.23 0.0
06 17:15 W 13 G 31 16.09 Partly Cloudy SCT095 14.7 -5 25% 76.25 0.0
06 16:55 NW 15 16.09 Mostly Cloudy BKN095 14.9 -5.8 24% 76.28 0.0
06 16:35 NW 20 G 39 16.09 Partly Cloudy SCT095 15 -5.5 24% 76.28 0.0
06 16:15 N 17 G 26 16.09 Partly Cloudy SCT095 15.1 -5.4 24% 76.28 0.0
06 15:55 NW 24 G 30 16.09 Partly Cloudy SCT095 15 -5 25% 76.33 0.0
06 15:35 NW 20 G 28 16.09 Partly Cloudy SCT095 14.2 -4.9 26% 76.33 0.0
06 15:15 NW 28 G 35 16.09 Mostly Cloudy BKN085 13.9 -5.6 26% 76.35 0.0
06 14:55 NW 15 G 28 16.09 Mostly Cloudy BKN085 13.5 -5.5 26% 76.38 0.0
06 14:35 W 22 G 30 16.09 Mostly Cloudy BKN085 14 -4.8 27% 76.38 0.0
06 14:15 NW 28 G 35 16.09 Partly Cloudy SCT085 14.1 -4.2 28% 76.38 0.0
06 13:55 W 22 G 35 16.09 Partly Cloudy SCT075 13.6 -4.6 28% 76.4 0.0
06 13:35 NW 26 G 33 16.09 Partly Cloudy SCT075 13.9 -3.9 29% 76.4 0.0
06 13:15 NW 15 16.09 Mostly Cloudy BKN075 13 -4.4 30% 76.43 0.0
06 12:55 NW 11 G 30 16.09 Partly Cloudy SCT075 12.5 -4.6 12.6 3.4 30% 76.45 0.0
06 12:35 NW 9 G 28 16.09 Mostly Cloudy BKN070 12 -4.7 31% 76.45 0.0
06 12:15 NW 19 G 26 16.09 Fair CLR 12.4 -4.3 31% 76.48 0.0
06 11:35 W 22 G 39 16.09 Partly Cloudy SCT070 11.5 -4.3 33% 76.48 0.0
06 11:15 NW 11 G 28 16.09 Fair CLR 10.8 -4.2 35% 76.5 0.0
06 10:55 NW 11 16.09 Fair CLR 10.8 -3.9 36% 76.48 0.0
06 10:35 NW 13 16.09 Fair CLR 10.5 -3.8 37% 76.5 0.0
06 10:15 NW 15 16.09 Fair CLR 10.3 -4.2 36% 76.48 0.0
06 09:55 NW 7 16.09 Fair CLR 9.9 -3 41% 9 76.48 0.0
06 09:35 NW 13 16.09 Fair CLR 9.5 -4.1 38% 8 76.48 0.0
06 09:15 W 7 16.09 Fair CLR 9 -3.2 42% 8 76.48 0.0
06 08:55 W 7 16.09 Fair CLR 8.4 -2.7 46% 8 76.48 0.0
06 08:35 NW 6 16.09 Fair CLR 7.7 -2.9 47% 76.45 0.0
06 08:15 NW 7 16.09 Fair CLR 6.9 -2.7 51% 6 76.45 0.0
06 07:55 NW 9 16.09 Fair CLR 6.1 -2.6 54% 4 76.43 0.0
06 07:35 NW 9 16.09 Fair CLR 5.2 -2.1 60% 3 76.4 0.0
06 07:15 NW 7 16.09 Fair CLR 4.3 -1.8 65% 3 76.4 0.0
06 06:55 Calm 16.09 Fair CLR 3 -2.3 9 2.9 68% 76.38 0.0
06 06:35 Calm 16.09 Fair CLR 3.4 -2.5 66% 76.35 0.0
06 06:15 Calm 16.09 Fair CLR 3.6 -2.8 63% 76.35 0.0
06 05:55 Calm 16.09 Fair CLR 4.7 -3.1 57% 76.35 0.0
06 05:35 Calm 16.09 Fair CLR 4.4 -2.5 61% 76.33 0.0
06 05:15 Calm 16.09 Fair CLR 5.2 -3 56% 76.33 0.0
06 04:55 NW 6 16.09 Fair CLR 5.6 -2.8 55% 76.3 0.0
06 04:35 Calm 16.09 Fair CLR 6.1 -3.7 50% 76.3 0.0
06 04:15 Calm 16.09 Fair CLR 6.7 -3.7 48% 76.28 0.0
06 03:35 Calm 16.09 Fair CLR 7.5 -4 44% 76.25 0.0
06 03:15 Calm 16.09 Fair CLR 7.6 -3.9 44% 76.25 0.0
06 02:55 Calm 16.09 Fair CLR 7.6 -3.8 45% 76.23 0.0
06 02:35 Calm 16.09 Fair CLR 8 -4.4 42% 76.23 0.0
06 02:15 Calm 16.09 Fair CLR 8.2 -4.6 40% 76.23 0.0
06 01:55 N 6 16.09 Fair CLR 8.5 -4.5 40% 76.23 0.0
06 01:35 N 6 16.09 Fair CLR 8.7 -4.5 39% 76.23 0.0
06 01:15 N 7 16.09 Fair CLR 8.9 -4.6 38% 8 76.23 0.0
06 00:55 N 6 16.09 Fair CLR 9 -4.6 12.7 9 38% 76.23 0.0
06 00:15 N 6 16.09 Fair CLR 9.6 -4.9 36% 76.17 0.0
05 23:55 N 6 16.09 Fair CLR 10 -5.1 34% 76.17 0.0
05 23:35 Calm 16.09 Fair CLR 10 -4.8 35% 76.15 0.0
05 23:15 N 6 16.09 Fair CLR 10.3 -5 34% 76.15 0.0
05 22:55 N 6 16.09 Fair CLR 10.5 -4.9 34% 76.15 0.0
05 22:35 N 9 16.09 Fair CLR 10.6 -5.1 33% 76.12 0.0
05 22:15 N 7 16.09 Fair CLR 10.6 -5 33% 76.12 0.0
05 21:55 N 9 16.09 Fair CLR 10.9 -5.1 32% 76.1 0.0
05 21:35 NW 7 16.09 Fair CLR 11.1 -5.3 32% 76.07 0.0
05 21:15 N 9 16.09 Fair CLR 11.4 -5.4 31% 76.05 0.0
05 20:55 N 11 16.09 Partly Cloudy SCT120 11.6 -5 31% 76.05 0.0
05 20:35 N 13 16.09 Partly Cloudy SCT120 11.7 -5 31% 76.02 0.0
05 20:15 N 11 16.09 Partly Cloudy SCT120 12.1 -5 30% 76.02 0.0
05 19:55 N 15 16.09 Partly Cloudy SCT120 12.2 -4.8 30% 76 0.0
05 19:35 NW 17 G 26 16.09 Fair CLR 12.5 -4.6 30% 76 0.0
05 19:15 N 13 G 30 16.09 Mostly Cloudy BKN120 12.6 -4.7 30% 75.97 0.0
05 18:55 NW 11 G 31 16.09 Overcast OVC120 12.7 -4.7 14.5 12.3 30% 75.97 0.0
05 18:35 NW 17 G 31 16.09 Mostly Cloudy BKN120 13 -4.7 29% 75.97 0.0
05 18:15 NW 22 G 31 16.09 Partly Cloudy SCT080 SCT120 13.4 -4.4 29% 75.95 0.0
05 17:55 N 13 G 30 16.09 Partly Cloudy SCT080 13.7 -3.7 30% 75.95 0.0
05 17:35 N 15 G 31 16.09 Fair CLR 13.8 -4.3 28% 75.95 0.0
05 17:15 NW 22 G 28 16.09 Fair CLR 13.8 -3 31% 75.92 0.0
05 16:55 NW 17 G 28 16.09 Partly Cloudy SCT070 13.7 -3.3 31% 75.92 0.0
05 16:35 NW 20 G 26 16.09 Partly Cloudy SCT070 13.9 -2.3 33% 75.95 0.0
05 16:15 NW 20 G 30 16.09 Mostly Cloudy BKN070 13.5 -2.5 33% 75.97 0.0
05 15:55 NW 20 G 31 16.09 Partly Cloudy SCT070 14 -2.2 33% 75.97 0.0
05 15:35 NW 15 16.09 Partly Cloudy SCT070 14.2 -1.6 34% 75.97 0.0
05 15:15 N 11 G 26 16.09 Mostly Cloudy BKN070 14 -3.2 30% 76 0.0
05 14:35 NW 15 G 30 16.09 Partly Cloudy SCT070 14.4 -1.9 33% 76 0.0
05 14:15 N 15 G 28 16.09 Partly Cloudy SCT070 13.6 -2.5 33% 76.02 0.0
05 13:55 NW 9 16.09 Overcast OVC070 13.1 -1.4 37% 76.02 0.0
05 13:35 W 9 16.09 Overcast OVC070 12.9 -1.8 36% 76.02 0.0
05 13:15 W 9 16.09 Mostly Cloudy BKN070 BKN120 12.6 -1.2 39% 76.05 0.0
05 12:55 NW 6 16.09 Mostly Cloudy SCT070 BKN110 12.2 -1.4 12.5 9 39% 76.05 0.0
05 12:35 N 7 16.09 Partly Cloudy SCT110 12.3 -0.2 42% 76.05 0.0
05 12:15 NW 9 16.09 Partly Cloudy SCT110 11.7 -0.6 43% 76.07 0.0
05 11:55 NW 9 16.09 Partly Cloudy SCT120 11.2 0.2 47% 76.1 0.0
05 11:35 W 13 16.09 Mostly Cloudy BKN120 11.1 1.5 52% 76.07 0.0
05 11:15 NW 9 16.09 Overcast OVC120 10.3 1.9 56% 76.05 0.0
Date Time (cdt) Wind (kph) Vis. (km) Weather Sky Cond. Air Dwpt Max. Min. Relative Humidity Wind Chill (°C) Heat Index (°C) altimeter (cm) sea level (mb) 1 hr 3 hr 6 hr
6 hour
Temperature (ºC) Pressure Precipitation (cm)